Time;durP1;ratioP1;P1;durP2;ratioP2;P2;SDS_P1;SDS_P2;PMS_P1;PMS_P2;Temp;Humidity;BMP_temperature;BMP_pressure;BME280_temperature;BME280_humidity;BME280_pressure;Samples;Min_cycle;Max_cycle;Signal;HPM_P1;HPM_P2
2023/02/25 00:00:17;;;;;;;3.03;0.90;;;13.90;60.80;;;;;;6286144;22;20020;-81
2023/02/25 00:02:46;;;;;;;3.53;1.33;;;13.90;60.80;;;;;;6286244;22;20006;-75
2023/02/25 00:05:12;;;;;;;2.13;0.93;;;13.90;60.80;;;;;;6276104;22;20378;-76
2023/02/25 00:07:39;;;;;;;3.13;1.00;;;13.90;60.80;;;;;;6286074;22;20067;-75
2023/02/25 00:10:11;;;;;;;4.43;0.90;;;13.90;60.80;;;;;;6276174;22;20006;-75
2023/02/25 00:12:38;;;;;;;2.50;1.10;;;13.90;60.80;;;;;;6286149;22;19996;-75
2023/02/25 00:15:05;;;;;;;3.42;0.75;;;13.90;60.80;;;;;;6276000;22;20349;-75
2023/02/25 00:17:32;;;;;;;2.72;0.90;;;13.90;60.80;;;;;;6275730;22;20019;-75
2023/02/25 00:19:59;;;;;;;2.58;0.90;;;13.90;60.80;;;;;;6275899;22;20375;-81
2023/02/25 00:22:27;;;;;;;2.95;0.90;;;13.90;60.80;;;;;;6275578;22;20061;-81
2023/02/25 00:24:54;;;;;;;3.85;1.10;;;13.90;60.80;;;;;;6275543;22;20034;-80
2023/02/25 00:27:21;;;;;;;3.47;0.90;;;13.90;60.80;;;;;;6275614;22;20033;-81
2023/02/25 00:29:50;;;;;;;2.10;0.70;;;14.00;60.80;;;;;;6275934;22;19996;-80
2023/02/25 00:32:16;;;;;;;3.08;1.08;;;13.90;60.80;;;;;;6276018;22;19999;-80
2023/02/25 00:34:43;;;;;;;3.95;0.77;;;13.90;60.70;;;;;;6275443;22;20075;-81
2023/02/25 00:37:09;;;;;;;2.58;1.02;;;14.00;60.80;;;;;;6275590;22;19996;-80
2023/02/25 00:39:41;;;;;;;1.77;0.80;;;14.00;60.70;;;;;;6275571;22;19996;-81
2023/02/25 00:42:10;;;;;;;2.20;0.75;;;14.00;60.70;;;;;;6275402;22;20046;-81
2023/02/25 00:44:36;;;;;;;1.92;0.70;;;14.70;61.20;;;;;;6275603;22;20008;-81
2023/02/25 00:47:03;;;;;;;2.03;0.77;;;14.00;60.70;;;;;;6275742;22;19996;-81
2023/02/25 00:49:30;;;;;;;2.75;1.15;;;14.00;60.70;;;;;;6275803;22;19995;-81
2023/02/25 00:51:56;;;;;;;1.75;0.63;;;14.00;60.70;;;;;;6275646;22;20327;-81
2023/02/25 00:54:22;;;;;;;3.20;0.90;;;14.00;60.70;;;;;;6275760;22;19996;-80
2023/02/25 00:56:48;;;;;;;3.47;1.00;;;14.00;60.70;;;;;;6275420;22;20091;-81
2023/02/25 00:59:14;;;;;;;2.20;0.70;;;14.00;60.60;;;;;;6275425;22;19996;-81
2023/02/25 01:01:40;;;;;;;2.15;0.60;;;14.00;60.60;;;;;;6275631;22;19992;-80
2023/02/25 01:04:07;;;;;;;2.80;1.20;;;14.00;60.60;;;;;;6275588;22;20382;-81
2023/02/25 01:06:36;;;;;;;2.33;0.98;;;14.00;60.60;;;;;;6285598;22;19991;-78
2023/02/25 01:09:04;;;;;;;3.70;1.10;;;14.00;60.50;;;;;;6275568;22;20003;-79
2023/02/25 01:11:33;;;;;;;2.60;0.80;;;14.00;60.50;;;;;;6285700;22;20411;-79
2023/02/25 01:14:02;;;;;;;2.50;0.65;;;14.00;60.50;;;;;;6285519;22;19996;-78
2023/02/25 01:16:30;;;;;;;2.42;0.73;;;14.00;60.40;;;;;;6275284;22;20000;-79
2023/02/25 01:19:01;;;;;;;3.72;0.80;;;14.10;60.50;;;;;;6248141;22;20431;-79
2023/02/25 01:21:30;;;;;;;2.70;1.05;;;14.00;60.30;;;;;;6285694;22;20014;-79
2023/02/25 01:24:02;;;;;;;4.13;0.95;;;14.10;61.00;;;;;;6285442;22;20077;-79
2023/02/25 01:26:31;;;;;;;3.42;0.90;;;14.10;60.30;;;;;;6285414;22;20469;-79
2023/02/25 01:28:57;;;;;;;3.42;0.98;;;14.10;61.00;;;;;;6285591;22;19992;-79
2023/02/25 01:31:23;;;;;;;3.35;0.98;;;14.10;60.30;;;;;;6285655;22;20003;-79
2023/02/25 01:33:52;;;;;;;4.32;1.05;;;14.10;60.30;;;;;;6287866;22;19996;-80
2023/02/25 01:36:18;;;;;;;3.75;1.00;;;14.10;60.30;;;;;;6287639;22;20006;-79
2023/02/25 01:38:43;;;;;;;2.05;0.70;;;14.10;60.30;;;;;;6287772;22;20024;-79
2023/02/25 01:41:09;;;;;;;2.90;0.80;;;14.10;60.20;;;;;;6287606;22;19996;-79
2023/02/25 01:43:35;;;;;;;3.22;1.17;;;14.10;60.20;;;;;;6287656;22;19996;-79
2023/02/25 01:46:00;;;;;;;4.28;0.82;;;14.10;60.20;;;;;;6287630;22;20053;-78
2023/02/25 01:48:32;;;;;;;1.90;0.70;;;14.10;60.30;;;;;;6287475;22;20485;-78
2023/02/25 01:51:03;;;;;;;1.95;0.70;;;14.10;60.30;;;;;;6287608;22;20431;-81
2023/02/25 01:53:39;;;;;;;3.55;0.93;;;14.10;60.30;;;;;;6287596;22;19992;-79
2023/02/25 01:56:06;;;;;;;1.80;0.60;;;14.10;60.30;;;;;;6287508;22;20057;-79
2023/02/25 01:58:33;;;;;;;4.15;0.80;;;14.10;60.40;;;;;;6287434;22;19996;-78
2023/02/25 02:00:59;;;;;;;2.47;0.85;;;14.10;60.50;;;;;;6287424;22;19995;-78
2023/02/25 02:03:29;;;;;;;1.80;0.90;;;14.10;60.60;;;;;;6287377;22;20000;-79
2023/02/25 02:05:58;;;;;;;2.67;0.60;;;14.10;60.60;;;;;;6287740;22;20031;-79
2023/02/25 02:08:25;;;;;;;1.60;0.80;;;14.10;60.60;;;;;;6287348;22;20004;-79
2023/02/25 02:10:51;;;;;;;3.72;0.63;;;14.10;60.60;;;;;;6287541;22;20043;-81
2023/02/25 02:13:17;;;;;;;2.35;0.95;;;14.10;60.60;;;;;;6287424;22;20323;-81
2023/02/25 02:16:08;;;;;;;4.60;0.90;;;14.10;60.60;;;;;;6277376;22;20045;-79
2023/02/25 02:18:37;;;;;;;1.00;0.60;;;14.20;60.70;;;;;;6275364;22;20055;-78
2023/02/25 02:21:05;;;;;;;3.92;1.05;;;14.20;60.70;;;;;;6277137;22;20003;-79
2023/02/25 02:23:58;;;;;;;1.58;0.80;;;14.20;60.70;;;;;;6277127;22;20011;-79
2023/02/25 02:26:40;;;;;;;2.85;1.33;;;14.20;60.60;;;;;;6276890;22;20085;-81
2023/02/25 02:29:09;;;;;;;1.35;0.60;;;14.20;60.70;;;;;;6277019;22;19992;-81
2023/02/25 02:32:02;;;;;;;2.42;0.75;;;14.20;60.70;;;;;;6277080;22;20004;-74
2023/02/25 02:35:08;;;;;;;2.65;0.80;;;14.20;60.70;;;;;;6276873;22;20059;-75
2023/02/25 02:38:04;;;;;;;1.70;0.73;;;14.20;60.60;;;;;;6200952;22;20034;-75
2023/02/25 02:40:48;;;;;;;2.45;0.90;;;14.20;60.60;;;;;;6259822;22;20049;-75
2023/02/25 02:43:36;;;;;;;1.30;0.55;;;14.20;60.60;;;;;;6282327;22;19999;-75
2023/02/25 02:46:30;;;;;;;3.05;0.70;;;14.20;60.70;;;;;;6286946;22;20003;-75
2023/02/25 02:49:04;;;;;;;2.20;0.77;;;14.20;60.70;;;;;;6287118;22;20419;-75
2023/02/25 02:51:55;;;;;;;1.40;0.70;;;14.20;60.70;;;;;;6287031;22;20072;-73
2023/02/25 02:54:23;;;;;;;2.67;0.55;;;14.20;60.70;;;;;;6276875;22;20015;-75
2023/02/25 02:56:51;;;;;;;1.75;0.65;;;14.20;60.70;;;;;;6286924;22;20067;-73
2023/02/25 02:59:41;;;;;;;1.42;0.70;;;14.20;60.70;;;;;;6286823;22;20062;-75
2023/02/25 03:02:17;;;;;;;1.48;0.75;;;14.20;60.70;;;;;;6286799;22;20308;-75
2023/02/25 03:04:45;;;;;;;1.58;0.70;;;14.20;61.30;;;;;;6286850;22;20083;-75
2023/02/25 03:07:13;;;;;;;4.55;0.88;;;14.20;60.70;;;;;;6286875;22;20024;-75
2023/02/25 03:09:45;;;;;;;1.55;0.63;;;14.20;60.70;;;;;;6286706;22;19996;-75
2023/02/25 03:12:11;;;;;;;2.00;0.60;;;14.20;60.70;;;;;;6286897;22;19995;-75
2023/02/25 03:14:36;;;;;;;2.25;0.45;;;14.20;60.70;;;;;;6286753;22;20106;-75
2023/02/25 03:17:18;;;;;;;1.80;0.73;;;14.20;60.70;;;;;;6276820;22;19994;-75
2023/02/25 03:19:53;;;;;;;1.73;0.60;;;14.20;61.40;;;;;;6286601;22;19992;-75
2023/02/25 03:22:26;;;;;;;1.15;0.55;;;14.20;60.70;;;;;;6286728;22;19999;-73
2023/02/25 03:25:09;;;;;;;2.45;0.60;;;14.20;60.50;;;;;;6286646;22;20014;-75
2023/02/25 03:27:41;;;;;;;1.90;0.50;;;14.30;60.50;;;;;;6275984;22;20004;-75
2023/02/25 03:30:19;;;;;;;3.88;0.98;;;14.30;60.50;;;;;;6286613;22;20326;-75
2023/02/25 03:32:55;;;;;;;2.20;0.80;;;14.30;60.40;;;;;;6286557;22;20435;-75
2023/02/25 03:35:23;;;;;;;3.10;0.60;;;14.20;60.40;;;;;;6286588;22;19999;-75
2023/02/25 03:37:51;;;;;;;1.60;0.50;;;14.30;60.40;;;;;;6286467;22;20050;-75
2023/02/25 03:40:20;;;;;;;2.00;0.70;;;14.20;60.40;;;;;;6286385;22;19996;-73
2023/02/25 03:42:52;;;;;;;1.90;0.55;;;14.20;60.50;;;;;;6286524;22;20027;-75
2023/02/25 03:45:20;;;;;;;1.52;0.68;;;14.30;60.50;;;;;;6286302;22;20042;-75
2023/02/25 03:47:46;;;;;;;2.17;0.85;;;14.20;60.40;;;;;;6286346;22;19999;-73
2023/02/25 03:50:24;;;;;;;3.25;0.77;;;14.20;60.40;;;;;;6286299;22;19995;-75
2023/02/25 03:52:49;;;;;;;1.80;0.32;;;14.20;60.40;;;;;;6286328;22;19992;-75
2023/02/25 03:55:16;;;;;;;2.85;0.90;;;14.20;60.50;;;;;;6286135;22;20011;-75
2023/02/25 03:57:44;;;;;;;1.30;0.63;;;14.20;60.40;;;;;;6286161;22;20427;-75
2023/02/25 04:00:17;;;;;;;1.15;0.50;;;14.30;60.60;;;;;;6286188;22;20000;-75
2023/02/25 04:02:45;;;;;;;1.35;0.50;;;14.20;60.50;;;;;;6286185;22;20045;-76
2023/02/25 04:05:12;;;;;;;1.27;0.60;;;14.20;60.60;;;;;;6286095;22;20011;-75
2023/02/25 04:07:38;;;;;;;2.88;0.68;;;14.20;60.50;;;;;;6249226;22;20380;-75
2023/02/25 04:10:06;;;;;;;1.45;0.43;;;14.20;60.50;;;;;;6286057;22;19998;-75
2023/02/25 04:12:31;;;;;;;1.75;0.60;;;14.20;60.50;;;;;;6286049;22;19999;-75
2023/02/25 04:14:57;;;;;;;2.15;0.68;;;14.20;60.60;;;;;;6285952;22;20053;-73
2023/02/25 04:17:22;;;;;;;1.42;0.77;;;14.20;60.50;;;;;;6286116;22;20025;-76
2023/02/25 04:19:48;;;;;;;1.90;0.90;;;14.20;60.50;;;;;;6286196;22;19996;-76
2023/02/25 04:22:14;;;;;;;1.10;0.50;;;14.20;60.60;;;;;;6286234;22;20014;-74
2023/02/25 04:24:39;;;;;;;1.10;0.45;;;14.20;60.50;;;;;;6285936;22;20011;-76
2023/02/25 04:27:06;;;;;;;1.63;0.60;;;14.20;60.50;;;;;;6275466;22;20011;-73
2023/02/25 04:29:32;;;;;;;0.98;0.38;;;14.20;60.50;;;;;;6275661;22;19996;-74
2023/02/25 04:31:57;;;;;;;1.80;0.80;;;14.20;60.50;;;;;;6285948;22;20003;-76
2023/02/25 04:34:24;;;;;;;1.63;0.73;;;14.20;60.50;;;;;;6286034;22;20000;-76
2023/02/25 04:36:50;;;;;;;1.05;0.52;;;14.20;60.50;;;;;;6285915;22;19991;-75
2023/02/25 04:39:17;;;;;;;3.05;1.15;;;14.20;61.20;;;;;;6258888;22;20000;-76
2023/02/25 04:41:43;;;;;;;1.92;0.70;;;14.20;60.60;;;;;;6285897;22;20461;-72
2023/02/25 04:44:09;;;;;;;3.30;0.57;;;14.20;60.50;;;;;;6285777;22;20007;-75
2023/02/25 04:46:39;;;;;;;3.17;0.77;;;14.20;60.50;;;;;;6285907;22;20071;-73
2023/02/25 04:49:06;;;;;;;1.88;0.50;;;14.20;60.50;;;;;;6285862;22;19999;-76
2023/02/25 04:51:32;;;;;;;0.93;0.40;;;14.20;60.60;;;;;;6285873;22;19995;-75
2023/02/25 04:53:58;;;;;;;1.10;0.50;;;14.20;60.60;;;;;;6285837;22;20087;-76
2023/02/25 04:56:24;;;;;;;2.85;0.70;;;14.20;60.50;;;;;;6275937;22;20331;-76
2023/02/25 04:58:50;;;;;;;2.10;0.68;;;14.20;60.50;;;;;;6275728;22;19991;-76
2023/02/25 05:01:15;;;;;;;3.55;1.08;;;14.30;69.70;;;;;;6286268;22;20000;-76
2023/02/25 05:03:41;;;;;;;2.20;0.65;;;14.20;60.40;;;;;;6285630;22;20347;-75
2023/02/25 05:06:08;;;;;;;0.90;0.50;;;14.20;60.40;;;;;;6275101;22;20069;-75
2023/02/25 05:08:35;;;;;;;3.28;0.60;;;14.20;60.40;;;;;;6285657;22;19996;-75
2023/02/25 05:11:02;;;;;;;2.70;0.80;;;14.20;60.30;;;;;;6285657;22;20045;-76
2023/02/25 05:13:28;;;;;;;4.60;0.90;;;14.20;60.30;;;;;;6285730;22;20187;-76
2023/02/25 05:16:11;;;;;;;1.42;0.60;;;14.20;60.30;;;;;;6275708;22;20027;-76
2023/02/25 05:18:39;;;;;;;1.48;0.68;;;14.20;60.30;;;;;;6285666;22;20003;-75
2023/02/25 05:21:11;;;;;;;2.90;0.95;;;14.20;60.40;;;;;;6285639;22;20458;-76
2023/02/25 05:23:37;;;;;;;2.17;0.50;;;14.20;60.40;;;;;;6285498;22;19999;-75
2023/02/25 05:26:03;;;;;;;0.95;0.55;;;14.10;60.30;;;;;;6285267;22;20015;-76
2023/02/25 05:28:29;;;;;;;1.67;0.82;;;14.20;60.40;;;;;;6285552;22;19996;-75
2023/02/25 05:30:55;;;;;;;2.00;0.70;;;14.20;60.50;;;;;;6285496;22;20038;-75
2023/02/25 05:33:22;;;;;;;2.17;0.90;;;14.20;60.40;;;;;;6285549;22;20011;-76
2023/02/25 05:35:47;;;;;;;0.85;0.60;;;14.10;60.40;;;;;;6258593;22;20067;-73
2023/02/25 05:38:13;;;;;;;2.75;0.70;;;14.20;60.40;;;;;;6275512;22;20395;-76
2023/02/25 05:40:39;;;;;;;1.98;0.63;;;14.10;60.30;;;;;;6285435;22;20031;-76
2023/02/25 05:43:04;;;;;;;2.63;0.77;;;14.20;60.40;;;;;;6285344;22;20067;-76
2023/02/25 05:45:30;;;;;;;2.13;0.57;;;14.10;60.30;;;;;;6285403;22;20423;-75
2023/02/25 05:47:56;;;;;;;2.33;0.70;;;14.20;60.40;;;;;;6285429;22;19996;-75
2023/02/25 05:50:21;;;;;;;1.67;0.50;;;14.20;60.40;;;;;;6275143;22;20031;-75
2023/02/25 05:52:47;;;;;;;0.93;0.50;;;14.20;60.40;;;;;;6285466;22;19996;-75
2023/02/25 05:55:12;;;;;;;1.17;0.60;;;14.10;60.40;;;;;;6285417;22;20449;-75
2023/02/25 05:57:38;;;;;;;2.45;0.60;;;14.20;60.40;;;;;;6285469;22;20072;-75
2023/02/25 06:00:08;;;;;;;1.42;0.65;;;14.10;60.40;;;;;;6285321;22;20071;-76
2023/02/25 06:02:35;;;;;;;2.90;0.50;;;14.20;60.40;;;;;;6285710;22;20038;-75
2023/02/25 06:05:01;;;;;;;2.88;0.88;;;14.10;60.40;;;;;;6285290;22;20016;-76
2023/02/25 06:07:29;;;;;;;1.90;0.60;;;14.10;60.50;;;;;;6285277;22;19999;-75
2023/02/25 06:09:58;;;;;;;0.85;0.45;;;14.10;60.40;;;;;;6288337;22;20090;-75
2023/02/25 06:12:24;;;;;;;2.40;0.50;;;14.10;60.40;;;;;;6290668;22;19992;-74
2023/02/25 06:14:50;;;;;;;2.85;0.70;;;14.10;60.40;;;;;;6285241;22;20007;-75
2023/02/25 06:17:15;;;;;;;1.73;0.60;;;14.20;60.50;;;;;;6285270;22;20435;-74
2023/02/25 06:19:41;;;;;;;1.67;0.60;;;14.10;60.40;;;;;;6287218;22;20027;-75
2023/02/25 06:22:06;;;;;;;1.73;0.82;;;14.10;60.40;;;;;;6287202;22;20003;-76
2023/02/25 06:24:32;;;;;;;1.85;0.60;;;14.20;60.50;;;;;;6286927;22;20335;-75
2023/02/25 06:26:57;;;;;;;3.25;0.90;;;14.10;60.40;;;;;;6287057;22;20004;-76
2023/02/25 06:29:23;;;;;;;1.58;0.60;;;14.10;60.50;;;;;;6287384;22;20018;-81
2023/02/25 06:31:49;;;;;;;1.48;0.60;;;14.10;60.50;;;;;;6287239;22;20002;-80
2023/02/25 06:34:15;;;;;;;1.85;0.63;;;14.10;60.50;;;;;;6287222;22;20071;-80
2023/02/25 06:36:40;;;;;;;2.13;0.73;;;14.10;60.60;;;;;;6287144;22;20002;-80
2023/02/25 06:39:06;;;;;;;5.65;0.63;;;14.10;60.60;;;;;;6286960;22;19996;-80
2023/02/25 06:41:32;;;;;;;2.65;0.65;;;14.10;60.60;;;;;;6286812;22;20435;-81
2023/02/25 06:43:58;;;;;;;4.30;0.70;;;14.10;60.70;;;;;;6286898;22;20049;-80
2023/02/25 06:46:25;;;;;;;2.80;0.70;;;14.10;60.70;;;;;;6287109;22;19996;-80
2023/02/25 06:48:51;;;;;;;2.28;0.75;;;14.10;61.40;;;;;;6287105;22;20000;-75
2023/02/25 06:51:16;;;;;;;3.13;0.90;;;14.10;61.40;;;;;;6286918;22;19996;-76
2023/02/25 06:53:43;;;;;;;2.28;0.95;;;14.20;60.70;;;;;;6286950;22;19992;-75
2023/02/25 06:56:11;;;;;;;2.03;0.70;;;14.10;60.70;;;;;;6286850;22;20038;-76
2023/02/25 06:58:37;;;;;;;2.10;0.60;;;14.10;61.30;;;;;;6286707;22;19999;-75
2023/02/25 07:01:12;;;;;;;1.60;0.63;;;14.10;69.50;;;;;;6286760;22;20056;-76
2023/02/25 07:03:38;;;;;;;4.60;0.93;;;14.10;60.70;;;;;;6276767;22;20007;-76
2023/02/25 07:06:04;;;;;;;1.48;0.50;;;14.10;61.30;;;;;;6286877;22;20000;-75
2023/02/25 07:08:30;;;;;;;2.38;0.55;;;14.20;60.70;;;;;;6276793;22;19999;-75
2023/02/25 07:10:55;;;;;;;3.38;1.10;;;14.10;61.30;;;;;;6286783;22;20003;-75
2023/02/25 07:13:21;;;;;;;3.78;0.80;;;14.20;60.60;;;;;;6286785;22;20019;-75
2023/02/25 07:15:47;;;;;;;4.00;0.70;;;14.20;60.60;;;;;;6286695;22;20003;-75
2023/02/25 07:18:13;;;;;;;3.22;0.90;;;14.20;60.60;;;;;;6286741;22;20380;-75
2023/02/25 07:20:38;;;;;;;2.88;1.15;;;14.20;60.60;;;;;;6286607;22;20031;-75
2023/02/25 07:23:05;;;;;;;2.97;0.80;;;14.20;60.70;;;;;;6286816;22;19992;-75
2023/02/25 07:25:31;;;;;;;1.75;0.50;;;14.20;60.70;;;;;;6276309;22;20029;-80
2023/02/25 07:27:57;;;;;;;2.13;0.85;;;14.10;60.60;;;;;;6276390;22;20485;-80
2023/02/25 07:30:23;;;;;;;2.50;0.60;;;14.10;60.60;;;;;;6276266;22;20003;-80
2023/02/25 07:32:49;;;;;;;4.45;0.68;;;14.20;60.70;;;;;;6276575;22;19995;-80
2023/02/25 07:35:15;;;;;;;2.45;0.70;;;14.20;60.70;;;;;;6286406;22;20169;-81
2023/02/25 07:37:41;;;;;;;4.72;1.10;;;14.20;60.60;;;;;;6276425;22;20034;-80
2023/02/25 07:40:11;;;;;;;2.50;1.00;;;14.20;60.60;;;;;;6276173;22;20418;-80
2023/02/25 07:42:39;;;;;;;3.00;1.25;;;14.20;60.70;;;;;;6276599;22;20067;-73
2023/02/25 07:45:05;;;;;;;5.32;2.22;;;14.20;60.70;;;;;;6286290;22;20086;-75
2023/02/25 07:47:31;;;;;;;3.20;2.30;;;14.20;60.80;;;;;;6275971;22;20020;-75
2023/02/25 07:49:57;;;;;;;4.30;2.95;;;14.20;60.70;;;;;;6286354;22;20453;-75
2023/02/25 07:52:22;;;;;;;4.60;4.20;;;14.20;60.80;;;;;;6286301;22;20077;-75
2023/02/25 07:54:48;;;;;;;4.93;4.15;;;14.20;60.80;;;;;;6286286;22;20030;-76
2023/02/25 07:57:13;;;;;;;6.68;5.13;;;14.20;60.80;;;;;;6286366;22;19992;-76
2023/02/25 07:59:39;;;;;;;7.22;6.65;;;14.20;60.90;;;;;;6286208;22;20000;-75
2023/02/25 08:02:04;;;;;;;10.10;8.02;;;14.20;61.00;;;;;;6286256;22;20038;-75
2023/02/25 08:04:31;;;;;;;9.82;8.93;;;14.20;61.00;;;;;;6275771;22;20004;-75
2023/02/25 08:06:56;;;;;;;10.30;9.45;;;14.20;61.00;;;;;;6286259;22;20002;-75
2023/02/25 08:09:22;;;;;;;10.40;9.60;;;14.20;61.00;;;;;;6276252;22;20000;-75
2023/02/25 08:11:48;;;;;;;11.68;10.75;;;14.20;61.00;;;;;;6275899;22;20340;-75
2023/02/25 08:14:14;;;;;;;12.60;11.50;;;14.20;61.10;;;;;;6286499;22;20058;-76
2023/02/25 08:16:39;;;;;;;12.85;11.75;;;14.20;61.10;;;;;;6286179;22;19996;-75
2023/02/25 08:19:05;;;;;;;13.80;12.50;;;14.20;61.10;;;;;;6286320;22;20006;-75
2023/02/25 08:21:31;;;;;;;13.73;12.35;;;14.20;61.20;;;;;;6276170;22;19995;-73
2023/02/25 08:23:58;;;;;;;13.18;11.90;;;14.20;61.20;;;;;;6285957;22;19999;-75
2023/02/25 08:26:26;;;;;;;14.07;12.68;;;14.20;61.20;;;;;;6285872;22;20016;-78
2023/02/25 08:28:52;;;;;;;11.85;10.82;;;14.20;61.50;;;;;;6285962;22;19991;-75
2023/02/25 08:31:19;;;;;;;10.98;10.13;;;14.20;61.50;;;;;;6286381;22;20034;-72
2023/02/25 08:33:51;;;;;;;12.18;10.90;;;14.20;61.40;;;;;;6285823;22;19995;-74
2023/02/25 08:36:23;;;;;;;10.00;9.10;;;14.30;61.50;;;;;;6286202;22;20066;-74
2023/02/25 08:38:50;;;;;;;10.18;9.23;;;14.30;61.40;;;;;;6286043;22;19995;-71
2023/02/25 08:41:17;;;;;;;9.50;8.57;;;14.30;61.40;;;;;;6285496;22;20109;-74
2023/02/25 08:43:43;;;;;;;9.40;8.50;;;14.30;61.40;;;;;;6285866;22;20071;-74
2023/02/25 08:46:09;;;;;;;8.93;8.10;;;14.30;61.50;;;;;;6285878;22;20050;-75
2023/02/25 08:48:35;;;;;;;8.20;7.40;;;14.30;61.50;;;;;;6285843;22;20000;-72
2023/02/25 08:51:08;;;;;;;8.40;7.60;;;14.30;61.60;;;;;;6285865;22;20079;-74
2023/02/25 08:53:38;;;;;;;7.90;7.07;;;14.30;61.70;;;;;;6285963;22;19992;-76
2023/02/25 08:56:09;;;;;;;8.07;7.28;;;14.30;61.70;;;;;;6285921;22;20022;-75
2023/02/25 08:58:36;;;;;;;7.03;6.45;;;14.30;61.80;;;;;;6285904;22;19995;-75
2023/02/25 09:01:07;;;;;;;6.90;6.30;;;14.40;70.80;;;;;;6285655;22;19999;-75
2023/02/25 09:03:34;;;;;;;9.38;6.72;;;14.30;61.90;;;;;;6285697;22;19999;-74
2023/02/25 09:06:00;;;;;;;6.72;5.78;;;14.30;61.90;;;;;;6285664;22;20003;-74
2023/02/25 09:08:27;;;;;;;6.00;5.38;;;14.30;61.90;;;;;;6285703;22;20519;-74
2023/02/25 09:10:53;;;;;;;9.27;5.55;;;14.30;61.80;;;;;;6275523;22;20268;-74
2023/02/25 09:13:18;;;;;;;5.80;5.15;;;14.40;62.00;;;;;;6285577;22;19998;-75
2023/02/25 09:15:44;;;;;;;8.40;5.55;;;14.40;62.10;;;;;;6285606;22;20003;-76
2023/02/25 09:18:10;;;;;;;6.45;4.35;;;14.40;62.10;;;;;;6285701;22;20023;-74
2023/02/25 09:20:36;;;;;;;4.72;4.20;;;14.40;62.00;;;;;;6285688;22;20326;-76
2023/02/25 09:23:01;;;;;;;4.55;3.70;;;14.50;62.10;;;;;;6285613;22;20023;-76
2023/02/25 09:25:28;;;;;;;7.97;3.97;;;14.40;62.00;;;;;;6285316;22;20034;-76
2023/02/25 09:27:53;;;;;;;5.05;3.58;;;14.50;62.00;;;;;;6285701;22;20004;-76
2023/02/25 09:30:19;;;;;;;4.75;3.75;;;14.50;62.10;;;;;;6285662;22;20006;-75
2023/02/25 09:32:45;;;;;;;8.13;3.50;;;14.50;62.20;;;;;;6285624;22;20379;-75
2023/02/25 09:35:11;;;;;;;4.78;3.30;;;14.50;62.20;;;;;;6275518;22;20023;-81
2023/02/25 09:37:37;;;;;;;10.20;2.95;;;14.50;62.10;;;;;;6285520;22;20296;-74
2023/02/25 09:40:05;;;;;;;7.13;3.20;;;14.50;61.50;;;;;;6275194;22;20404;-73
2023/02/25 09:43:02;;;;;;;4.68;2.53;;;14.50;61.30;;;;;;6275579;22;19996;-74
2023/02/25 09:45:31;;;;;;;3.60;1.90;;;14.50;61.40;;;;;;6274324;22;20447;-73
2023/02/25 09:48:05;;;;;;;6.93;2.35;;;14.50;61.50;;;;;;6285504;22;20002;-74
2023/02/25 09:50:42;;;;;;;4.50;2.15;;;14.50;61.70;;;;;;6275206;22;19991;-72
2023/02/25 09:53:17;;;;;;;4.40;2.53;;;14.60;62.00;;;;;;6279766;22;20006;-75
2023/02/25 09:55:49;;;;;;;5.05;2.17;;;14.50;61.90;;;;;;6290463;22;20049;-74
2023/02/25 09:58:40;;;;;;;3.05;1.70;;;14.60;61.90;;;;;;6287461;22;19991;-73
2023/02/25 10:01:33;;;;;;;3.58;1.73;;;14.70;70.90;;;;;;6287382;22;20327;-75
2023/02/25 10:04:14;;;;;;;6.20;2.00;;;14.70;62.00;;;;;;6287207;22;20049;-73
2023/02/25 10:06:45;;;;;;;3.33;1.70;;;14.70;61.90;;;;;;6277511;22;20049;-73
2023/02/25 10:09:36;;;;;;;;;;;14.70;61.70;;;;;;6278165;22;20007;-73
2023/02/25 10:12:24;;;;;;;3.88;1.60;;;14.70;61.80;;;;;;6287824;22;20272;-73
2023/02/25 10:14:59;;;;;;;4.57;1.63;;;14.70;61.80;;;;;;6287636;22;19995;-73
2023/02/25 10:17:51;;;;;;;2.65;1.50;;;14.70;61.80;;;;;;6287372;22;20473;-74
2023/02/25 10:20:41;;;;;;;4.05;1.60;;;14.70;61.90;;;;;;6277347;22;20034;-74
2023/02/25 10:23:26;;;;;;;4.78;1.70;;;14.80;61.90;;;;;;6276694;22;20022;-73
2023/02/25 10:26:01;;;;;;;3.95;1.60;;;14.80;61.90;;;;;;6286603;22;20066;-74
2023/02/25 10:28:30;;;;;;;3.25;1.63;;;14.80;61.80;;;;;;6286918;22;20023;-73
2023/02/25 10:31:05;;;;;;;6.28;1.98;;;14.90;61.60;;;;;;6276394;22;19992;-73
2023/02/25 10:33:39;;;;;;;4.55;1.58;;;14.90;61.40;;;;;;6276962;22;20000;-73
2023/02/25 10:36:16;;;;;;;4.68;1.50;;;15.00;61.20;;;;;;6276478;22;20422;-74
2023/02/25 10:38:50;;;;;;;2.30;1.20;;;15.10;61.10;;;;;;6277190;22;20004;-74
2023/02/25 10:41:21;;;;;;;3.38;1.35;;;15.10;60.90;;;;;;6277236;22;19995;-75
2023/02/25 10:43:48;;;;;;;;;;;15.20;60.80;;;;;;6277266;22;20002;-74
2023/02/25 10:46:37;;;;;;;3.75;1.23;;;15.20;60.80;;;;;;6277371;22;19906;-76
2023/02/25 10:49:25;;;;;;;5.85;1.70;;;15.30;60.60;;;;;;6287161;22;20054;-73
2023/02/25 10:52:03;;;;;;;4.25;1.20;;;15.20;60.30;;;;;;6276733;22;19992;-74
2023/02/25 10:54:34;;;;;;;3.17;1.20;;;15.20;60.50;;;;;;6286996;22;20000;-74
2023/02/25 10:57:07;;;;;;;1.33;0.50;;;15.20;60.70;;;;;;6286948;22;20030;-74
2023/02/25 10:59:38;;;;;;;4.00;1.00;;;15.20;60.80;;;;;;6286933;22;20003;-75
2023/02/25 11:02:25;;;;;;;2.92;1.10;;;15.10;60.90;;;;;;6276839;22;20476;-76
2023/02/25 11:04:52;;;;;;;4.07;1.05;;;15.10;61.00;;;;;;6275418;22;20343;-74
2023/02/25 11:07:27;;;;;;;3.38;0.80;;;15.10;61.30;;;;;;6276874;22;20131;-74
2023/02/25 11:10:15;;;;;;;3.67;1.02;;;15.10;61.50;;;;;;6276498;22;20078;-73
2023/02/25 11:12:49;;;;;;;3.17;1.10;;;15.10;61.50;;;;;;6286747;22;19996;-74
2023/02/25 11:15:28;;;;;;;3.65;1.10;;;15.10;61.70;;;;;;6286808;22;20327;-74
2023/02/25 11:18:37;;;;;;;1.90;0.90;;;15.10;61.80;;;;;;6276863;22;20006;-74
2023/02/25 11:21:08;;;;;;;2.38;0.73;;;15.10;61.90;;;;;;6286826;22;19999;-75
2023/02/25 11:23:42;;;;;;;2.50;0.70;;;15.10;62.00;;;;;;6286809;22;20022;-74
2023/02/25 11:26:25;;;;;;;2.50;0.80;;;15.10;62.00;;;;;;6286368;22;20324;-74
2023/02/25 11:28:51;;;;;;;3.50;0.95;;;15.10;62.10;;;;;;6276423;22;19991;-74
2023/02/25 11:31:19;;;;;;;3.45;1.20;;;15.10;62.10;;;;;;6286634;22;19999;-75
2023/02/25 11:34:02;;;;;;;2.63;0.70;;;15.10;62.10;;;;;;6286440;22;19999;-72
2023/02/25 11:36:34;;;;;;;1.70;0.63;;;15.20;62.00;;;;;;6286422;22;20003;-73
2023/02/25 11:39:23;;;;;;;3.20;0.80;;;15.30;61.90;;;;;;6276560;22;20354;-74
2023/02/25 11:41:51;;;;;;;1.42;0.77;;;15.30;61.70;;;;;;6249199;22;20439;-73
2023/02/25 11:44:43;;;;;;;2.63;0.65;;;15.40;61.60;;;;;;6286327;22;20094;-73
2023/02/25 11:47:12;;;;;;;1.95;0.80;;;15.50;61.50;;;;;;6286452;22;20018;-72
2023/02/25 11:49:52;;;;;;;2.45;0.90;;;15.50;61.50;;;;;;6276440;22;20311;-71
2023/02/25 11:52:40;;;;;;;1.92;1.10;;;15.50;61.30;;;;;;6276018;22;20008;-71
2023/02/25 11:55:18;;;;;;;4.10;0.70;;;15.60;61.10;;;;;;6276436;22;19999;-72
2023/02/25 11:58:10;;;;;;;2.28;0.73;;;15.70;60.80;;;;;;6276455;22;19996;-71
2023/02/25 12:01:15;;;;;;;3.13;0.88;;;15.80;60.40;;;;;;6276085;22;20006;-72
2023/02/25 12:04:25;;;;;;;1.60;0.57;;;16.00;59.70;;;;;;6276213;22;20030;-73
2023/02/25 12:07:03;;;;;;;3.33;0.80;;;16.00;59.50;;;;;;6286367;22;19996;-73
2023/02/25 12:10:03;;;;;;;5.13;0.90;;;16.00;59.40;;;;;;6286235;22;20744;-73
2023/02/25 12:12:58;;;;;;;2.50;0.82;;;16.00;59.30;;;;;;6286210;22;20030;-72
2023/02/25 12:16:02;;;;;;;3.10;0.70;;;15.90;59.40;;;;;;6286028;22;20097;-73
2023/02/25 12:18:43;;;;;;;2.22;0.70;;;15.80;59.50;;;;;;6286023;22;20430;-70
2023/02/25 12:21:27;;;;;;;2.85;0.88;;;15.80;59.60;;;;;;6275611;22;20003;-72
2023/02/25 12:24:14;;;;;;;3.20;1.13;;;15.80;60.10;;;;;;6285683;22;20029;-74
2023/02/25 12:27:03;;;;;;;2.85;0.60;;;15.70;60.20;;;;;;6275444;22;20091;-72
2023/02/25 12:29:50;;;;;;;1.60;0.50;;;15.60;60.10;;;;;;6198681;22;20218;-75
2023/02/25 12:32:19;;;;;;;1.73;0.60;;;15.60;60.50;;;;;;6275610;22;20003;-72
2023/02/25 12:35:05;;;;;;;0.77;0.50;;;15.60;60.80;;;;;;6275943;22;20327;-73
2023/02/25 12:38:02;;;;;;;3.63;0.73;;;15.60;61.00;;;;;;6275984;22;20010;-73
2023/02/25 12:40:45;;;;;;;3.03;0.82;;;15.60;61.10;;;;;;6275478;22;19999;-73
2023/02/25 12:43:36;;;;;;;2.65;0.75;;;15.60;61.10;;;;;;6275891;22;20019;-73
2023/02/25 12:46:23;;;;;;;2.08;0.73;;;15.60;61.10;;;;;;6275903;22;20042;-73
2023/02/25 12:49:14;;;;;;;2.45;0.70;;;15.80;61.10;;;;;;6275745;22;19996;-73
2023/02/25 12:52:16;;;;;;;3.38;0.70;;;15.80;60.90;;;;;;6275645;22;20313;-73
2023/02/25 12:55:14;;;;;;;3.75;0.85;;;15.90;61.40;;;;;;6275833;22;20067;-73
2023/02/25 12:57:59;;;;;;;2.20;0.60;;;15.90;60.50;;;;;;6275397;22;20495;-73
2023/02/25 13:00:47;;;;;;;2.70;0.73;;;15.90;60.40;;;;;;6275808;22;20000;-73
2023/02/25 13:03:33;;;;;;;4.07;0.85;;;15.90;60.40;;;;;;6275629;22;19995;-72
2023/02/25 13:06:15;;;;;;;2.28;0.80;;;15.90;60.10;;;;;;6275652;22;20008;-72
2023/02/25 13:09:09;;;;;;;2.58;0.63;;;15.90;60.30;;;;;;6275723;22;20003;-72